sensor_id;sensor_type;location;lat;lon;timestamp;pressure;altitude;pressure_sealevel;temperature;humidity
13968;BME280;39536;52.198;9.920;2023-03-14T00:01:11;98231.09;;;12.35;100.00
13968;BME280;39536;52.198;9.920;2023-03-14T00:03:38;98228.47;;;12.35;100.00
13968;BME280;39536;52.198;9.920;2023-03-14T00:06:05;98211.75;;;12.37;100.00
13968;BME280;39536;52.198;9.920;2023-03-14T00:08:32;98214.00;;;12.31;100.00
13968;BME280;39536;52.198;9.920;2023-03-14T00:11:04;98198.44;;;12.29;100.00
13968;BME280;39536;52.198;9.920;2023-03-14T00:13:30;98200.47;;;12.25;100.00
13968;BME280;39536;52.198;9.920;2023-03-14T00:16:03;98195.59;;;12.21;100.00
13968;BME280;39536;52.198;9.920;2023-03-14T00:18:30;98187.31;;;12.16;100.00
13968;BME280;39536;52.198;9.920;2023-03-14T00:20:57;98212.44;;;12.17;100.00
13968;BME280;39536;52.198;9.920;2023-03-14T00:23:24;98194.41;;;12.14;100.00
13968;BME280;39536;52.198;9.920;2023-03-14T00:25:50;98176.75;;;12.06;100.00
13968;BME280;39536;52.198;9.920;2023-03-14T00:28:17;98195.25;;;12.03;100.00
13968;BME280;39536;52.198;9.920;2023-03-14T00:30:43;98199.50;;;12.04;100.00
13968;BME280;39536;52.198;9.920;2023-03-14T00:33:11;98206.16;;;12.08;100.00
13968;BME280;39536;52.198;9.920;2023-03-14T00:35:38;98200.22;;;12.06;100.00
13968;BME280;39536;52.198;9.920;2023-03-14T00:38:04;98188.00;;;12.07;100.00
13968;BME280;39536;52.198;9.920;2023-03-14T00:40:31;98206.88;;;12.10;100.00
13968;BME280;39536;52.198;9.920;2023-03-14T00:42:57;98222.53;;;12.10;100.00
13968;BME280;39536;52.198;9.920;2023-03-14T00:45:24;98216.25;;;12.13;100.00
13968;BME280;39536;52.198;9.920;2023-03-14T00:47:50;98211.38;;;12.19;100.00
13968;BME280;39536;52.198;9.920;2023-03-14T00:50:18;98232.59;;;12.15;100.00
13968;BME280;39536;52.198;9.920;2023-03-14T00:52:45;98243.53;;;12.20;100.00
13968;BME280;39536;52.198;9.920;2023-03-14T00:55:14;98206.88;;;12.21;100.00
13968;BME280;39536;52.198;9.920;2023-03-14T00:57:40;98208.16;;;12.27;100.00
13968;BME280;39536;52.198;9.920;2023-03-14T01:00:08;98201.53;;;12.23;100.00
13968;BME280;39536;52.198;9.920;2023-03-14T01:02:36;98183.16;;;12.24;100.00
13968;BME280;39536;52.198;9.920;2023-03-14T01:05:04;98190.03;;;12.25;100.00
13968;BME280;39536;52.198;9.920;2023-03-14T01:07:32;98203.09;;;12.25;100.00
13968;BME280;39536;52.198;9.920;2023-03-14T01:09:58;98184.69;;;12.27;100.00
13968;BME280;39536;52.198;9.920;2023-03-14T01:12:25;98185.16;;;12.21;100.00
13968;BME280;39536;52.198;9.920;2023-03-14T01:14:51;98178.63;;;12.27;100.00
13968;BME280;39536;52.198;9.920;2023-03-14T01:17:18;98168.91;;;12.29;100.00
13968;BME280;39536;52.198;9.920;2023-03-14T01:19:44;98166.88;;;12.21;100.00
13968;BME280;39536;52.198;9.920;2023-03-14T01:22:11;98178.63;;;12.27;100.00
13968;BME280;39536;52.198;9.920;2023-03-14T01:24:39;98176.75;;;12.29;100.00
13968;BME280;39536;52.198;9.920;2023-03-14T01:27:05;98183.28;;;12.23;100.00
13968;BME280;39536;52.198;9.920;2023-03-14T01:29:32;98158.47;;;12.17;100.00
13968;BME280;39536;52.198;9.920;2023-03-14T01:31:58;98146.25;;;12.18;100.00
13968;BME280;39536;52.198;9.920;2023-03-14T01:34:25;98156.81;;;12.16;100.00
13968;BME280;39536;52.198;9.920;2023-03-14T01:36:52;98155.03;;;12.17;100.00
13968;BME280;39536;52.198;9.920;2023-03-14T01:39:19;98150.63;;;12.17;100.00
13968;BME280;39536;52.198;9.920;2023-03-14T01:41:47;98155.16;;;12.15;100.00
13968;BME280;39536;52.198;9.920;2023-03-14T01:44:13;98165.13;;;12.10;100.00
13968;BME280;39536;52.198;9.920;2023-03-14T01:46:40;98185.16;;;12.10;100.00
13968;BME280;39536;52.198;9.920;2023-03-14T01:49:18;98172.00;;;12.11;100.00
13968;BME280;39536;52.198;9.920;2023-03-14T01:51:50;98169.63;;;12.08;100.00
13968;BME280;39536;52.198;9.920;2023-03-14T01:54:23;98144.13;;;12.00;100.00
13968;BME280;39536;52.198;9.920;2023-03-14T01:56:55;98142.81;;;11.95;100.00
13968;BME280;39536;52.198;9.920;2023-03-14T01:59:24;98129.91;;;11.93;100.00
13968;BME280;39536;52.198;9.920;2023-03-14T02:01:51;98127.38;;;11.92;100.00
13968;BME280;39536;52.198;9.920;2023-03-14T02:04:20;98121.88;;;11.84;100.00
13968;BME280;39536;52.198;9.920;2023-03-14T02:06:51;98122.53;;;11.87;100.00
13968;BME280;39536;52.198;9.920;2023-03-14T02:09:19;98117.31;;;11.87;100.00
13968;BME280;39536;52.198;9.920;2023-03-14T02:11:46;98119.22;;;11.85;100.00
13968;BME280;39536;52.198;9.920;2023-03-14T02:14:22;98118.38;;;11.85;100.00
13968;BME280;39536;52.198;9.920;2023-03-14T02:16:51;98120.38;;;11.81;100.00
13968;BME280;39536;52.198;9.920;2023-03-14T02:19:23;98130.91;;;11.79;100.00
13968;BME280;39536;52.198;9.920;2023-03-14T02:21:57;98142.75;;;11.84;100.00
13968;BME280;39536;52.198;9.920;2023-03-14T02:24:33;98134.09;;;11.83;100.00
13968;BME280;39536;52.198;9.920;2023-03-14T02:27:06;98141.09;;;11.71;100.00
13968;BME280;39536;52.198;9.920;2023-03-14T02:29:36;98142.63;;;11.74;100.00
13968;BME280;39536;52.198;9.920;2023-03-14T02:32:06;98138.88;;;11.78;100.00
13968;BME280;39536;52.198;9.920;2023-03-14T02:34:33;98146.78;;;11.76;100.00
13968;BME280;39536;52.198;9.920;2023-03-14T02:37:00;98142.03;;;11.70;100.00
13968;BME280;39536;52.198;9.920;2023-03-14T02:39:30;98124.94;;;11.55;100.00
13968;BME280;39536;52.198;9.920;2023-03-14T02:41:59;98125.31;;;11.62;100.00
13968;BME280;39536;52.198;9.920;2023-03-14T02:44:27;98115.84;;;11.61;100.00
13968;BME280;39536;52.198;9.920;2023-03-14T02:46:54;98115.94;;;11.48;100.00
13968;BME280;39536;52.198;9.920;2023-03-14T02:49:21;98107.16;;;11.49;100.00
13968;BME280;39536;52.198;9.920;2023-03-14T02:51:48;98117.13;;;11.55;100.00
13968;BME280;39536;52.198;9.920;2023-03-14T02:54:15;98106.69;;;11.55;100.00
13968;BME280;39536;52.198;9.920;2023-03-14T02:56:42;98101.25;;;11.58;100.00
13968;BME280;39536;52.198;9.920;2023-03-14T02:59:08;98092.72;;;11.56;100.00
13968;BME280;39536;52.198;9.920;2023-03-14T03:01:36;98082.41;;;11.66;100.00
13968;BME280;39536;52.198;9.920;2023-03-14T03:04:04;98087.97;;;11.61;100.00
13968;BME280;39536;52.198;9.920;2023-03-14T03:06:30;98087.88;;;11.63;100.00
13968;BME280;39536;52.198;9.920;2023-03-14T03:08:57;98087.75;;;11.64;100.00
13968;BME280;39536;52.198;9.920;2023-03-14T03:11:24;98092.03;;;11.65;100.00
13968;BME280;39536;52.198;9.920;2023-03-14T03:13:50;98080.16;;;11.61;100.00
13968;BME280;39536;52.198;9.920;2023-03-14T03:16:17;98082.41;;;11.66;100.00
13968;BME280;39536;52.198;9.920;2023-03-14T03:18:45;98073.16;;;11.62;100.00
13968;BME280;39536;52.198;9.920;2023-03-14T03:21:11;98073.28;;;11.60;100.00
13968;BME280;39536;52.198;9.920;2023-03-14T03:23:38;98072.56;;;11.58;100.00
13968;BME280;39536;52.198;9.920;2023-03-14T03:26:05;98071.88;;;11.56;100.00
13968;BME280;39536;52.198;9.920;2023-03-14T03:28:32;98066.66;;;11.56;100.00
13968;BME280;39536;52.198;9.920;2023-03-14T03:30:58;98071.88;;;11.56;100.00
13968;BME280;39536;52.198;9.920;2023-03-14T03:33:25;98079.19;;;11.51;100.00
13968;BME280;39536;52.198;9.920;2023-03-14T03:35:53;98069.84;;;11.48;100.00
13968;BME280;39536;52.198;9.920;2023-03-14T03:38:20;98063.56;;;11.51;100.00
13968;BME280;39536;52.198;9.920;2023-03-14T03:40:46;98066.03;;;11.52;100.00
13968;BME280;39536;52.198;9.920;2023-03-14T03:43:13;98066.25;;;11.49;100.00
13968;BME280;39536;52.198;9.920;2023-03-14T03:45:40;98064.25;;;11.42;100.00
13968;BME280;39536;52.198;9.920;2023-03-14T03:48:06;98068.28;;;11.35;100.00
13968;BME280;39536;52.198;9.920;2023-03-14T03:50:33;98078.13;;;11.42;100.00
13968;BME280;39536;52.198;9.920;2023-03-14T03:53:01;98084.75;;;11.35;100.00
13968;BME280;39536;52.198;9.920;2023-03-14T03:55:27;98082.88;;;11.37;100.00
13968;BME280;39536;52.198;9.920;2023-03-14T03:57:54;98095.06;;;11.48;100.00
13968;BME280;39536;52.198;9.920;2023-03-14T04:00:21;98093.88;;;11.41;100.00
13968;BME280;39536;52.198;9.920;2023-03-14T04:02:48;98101.44;;;11.32;100.00
13968;BME280;39536;52.198;9.920;2023-03-14T04:05:14;98109.78;;;11.14;100.00
13968;BME280;39536;52.198;9.920;2023-03-14T04:07:41;98131.53;;;11.01;100.00
13968;BME280;39536;52.198;9.920;2023-03-14T04:10:10;98143.50;;;10.80;100.00
13968;BME280;39536;52.198;9.920;2023-03-14T04:12:37;98142.22;;;10.37;100.00
13968;BME280;39536;52.198;9.920;2023-03-14T04:15:04;98143.84;;;10.26;100.00
13968;BME280;39536;52.198;9.920;2023-03-14T04:17:31;98131.09;;;10.10;100.00
13968;BME280;39536;52.198;9.920;2023-03-14T04:19:57;98119.63;;;10.00;100.00
13968;BME280;39536;52.198;9.920;2023-03-14T04:22:24;98121.75;;;9.94;100.00
13968;BME280;39536;52.198;9.920;2023-03-14T04:24:51;98104.06;;;9.87;100.00
13968;BME280;39536;52.198;9.920;2023-03-14T04:27:19;98112.88;;;9.84;100.00
13968;BME280;39536;52.198;9.920;2023-03-14T04:29:45;98103.75;;;9.91;100.00
13968;BME280;39536;52.198;9.920;2023-03-14T04:32:12;98100.75;;;9.85;100.00
13968;BME280;39536;52.198;9.920;2023-03-14T04:34:38;98118.34;;;9.81;100.00
13968;BME280;39536;52.198;9.920;2023-03-14T04:37:05;98104.06;;;9.74;100.00
13968;BME280;39536;52.198;9.920;2023-03-14T04:39:31;98096.06;;;9.77;100.00
13968;BME280;39536;52.198;9.920;2023-03-14T04:41:58;98090.13;;;9.88;100.00
13968;BME280;39536;52.198;9.920;2023-03-14T04:44:26;98088.78;;;9.82;100.00
13968;BME280;39536;52.198;9.920;2023-03-14T04:46:53;98087.00;;;9.83;100.00
13968;BME280;39536;52.198;9.920;2023-03-14T04:49:19;98087.84;;;9.83;100.00
13968;BME280;39536;52.198;9.920;2023-03-14T04:51:46;98088.38;;;9.88;100.00
13968;BME280;39536;52.198;9.920;2023-03-14T04:54:13;98092.31;;;9.94;100.00
13968;BME280;39536;52.198;9.920;2023-03-14T04:56:39;98086.69;;;9.87;100.00
13968;BME280;39536;52.198;9.920;2023-03-14T04:59:06;98088.16;;;9.79;100.00
13968;BME280;39536;52.198;9.920;2023-03-14T05:01:35;98086.88;;;9.84;100.00
13968;BME280;39536;52.198;9.920;2023-03-14T05:04:01;98089.28;;;9.87;100.00
13968;BME280;39536;52.198;9.920;2023-03-14T05:06:28;98094.38;;;9.89;100.00
13968;BME280;39536;52.198;9.920;2023-03-14T05:08:55;98088.78;;;9.82;100.00
13968;BME280;39536;52.198;9.920;2023-03-14T05:11:21;98081.81;;;9.83;100.00
13968;BME280;39536;52.198;9.920;2023-03-14T05:13:48;98090.84;;;9.77;100.00
13968;BME280;39536;52.198;9.920;2023-03-14T05:16:14;98076.50;;;9.84;100.00
13968;BME280;39536;52.198;9.920;2023-03-14T05:18:42;98079.94;;;9.85;100.00
13968;BME280;39536;52.198;9.920;2023-03-14T05:21:09;98069.63;;;9.83;100.00
13968;BME280;39536;52.198;9.920;2023-03-14T05:23:36;98081.41;;;9.76;100.00
13968;BME280;39536;52.198;9.920;2023-03-14T05:26:02;98071.63;;;9.80;100.00
13968;BME280;39536;52.198;9.920;2023-03-14T05:28:29;98076.63;;;9.83;100.00
13968;BME280;39536;52.198;9.920;2023-03-14T05:30:56;98062.25;;;9.90;100.00
13968;BME280;39536;52.198;9.920;2023-03-14T05:33:23;98066.63;;;9.89;100.00
13968;BME280;39536;52.198;9.920;2023-03-14T05:35:50;98062.44;;;9.87;100.00
13968;BME280;39536;52.198;9.920;2023-03-14T05:38:17;98054.16;;;9.82;100.00
13968;BME280;39536;52.198;9.920;2023-03-14T05:40:44;98055.00;;;9.69;100.00
13968;BME280;39536;52.198;9.920;2023-03-14T05:43:11;98060.59;;;9.76;100.00
13968;BME280;39536;52.198;9.920;2023-03-14T05:45:38;98046.25;;;9.70;100.00
13968;BME280;39536;52.198;9.920;2023-03-14T05:48:05;98052.63;;;9.66;100.00
13968;BME280;39536;52.198;9.920;2023-03-14T05:50:32;98056.88;;;9.67;100.00
13968;BME280;39536;52.198;9.920;2023-03-14T05:53:00;98048.44;;;9.64;100.00
13968;BME280;39536;52.198;9.920;2023-03-14T05:55:26;98050.09;;;9.65;100.00
13968;BME280;39536;52.198;9.920;2023-03-14T05:57:53;98040.03;;;9.73;100.00
13968;BME280;39536;52.198;9.920;2023-03-14T06:00:21;98046.03;;;9.74;100.00
13968;BME280;39536;52.198;9.920;2023-03-14T06:02:48;98052.00;;;9.63;100.00
13968;BME280;39536;52.198;9.920;2023-03-14T06:05:15;98044.69;;;9.68;100.00
13968;BME280;39536;52.198;9.920;2023-03-14T06:07:41;98037.13;;;9.65;100.00
13968;BME280;39536;52.198;9.920;2023-03-14T06:10:10;98047.72;;;9.62;100.00
13968;BME280;39536;52.198;9.920;2023-03-14T06:12:36;98046.59;;;9.66;100.00
13968;BME280;39536;52.198;9.920;2023-03-14T06:15:04;98052.50;;;9.68;100.00
13968;BME280;39536;52.198;9.920;2023-03-14T06:17:31;98047.28;;;9.68;100.00
13968;BME280;39536;52.198;9.920;2023-03-14T06:19:57;98062.06;;;9.80;100.00
13968;BME280;39536;52.198;9.920;2023-03-14T06:22:24;98052.59;;;9.79;100.00
13968;BME280;39536;52.198;9.920;2023-03-14T06:24:51;98050.72;;;9.94;100.00
13968;BME280;39536;52.198;9.920;2023-03-14T06:27:19;98061.75;;;9.85;100.00
13968;BME280;39536;52.198;9.920;2023-03-14T06:29:45;98068.25;;;9.90;100.00
13968;BME280;39536;52.198;9.920;2023-03-14T06:32:12;98063.16;;;10.02;100.00
13968;BME280;39536;52.198;9.920;2023-03-14T06:34:38;98068.25;;;10.03;100.00
13968;BME280;39536;52.198;9.920;2023-03-14T06:37:06;98077.72;;;10.04;100.00
13968;BME280;39536;52.198;9.920;2023-03-14T06:39:33;98075.34;;;10.01;100.00
13968;BME280;39536;52.198;9.920;2023-03-14T06:41:59;98086.25;;;10.06;100.00
13968;BME280;39536;52.198;9.920;2023-03-14T06:44:27;98089.34;;;10.11;100.00
13968;BME280;39536;52.198;9.920;2023-03-14T06:46:54;98088.53;;;10.11;100.00
13968;BME280;39536;52.198;9.920;2023-03-14T06:49:21;98082.41;;;9.99;100.00
13968;BME280;39536;52.198;9.920;2023-03-14T06:51:48;98092.59;;;10.02;100.00
13968;BME280;39536;52.198;9.920;2023-03-14T06:54:14;98085.81;;;10.00;100.00
13968;BME280;39536;52.198;9.920;2023-03-14T06:56:41;98084.69;;;10.04;100.00
13968;BME280;39536;52.198;9.920;2023-03-14T06:59:07;98078.88;;;10.00;100.00
13968;BME280;39536;52.198;9.920;2023-03-14T07:01:35;98089.50;;;9.97;100.00
13968;BME280;39536;52.198;9.920;2023-03-14T07:04:02;98091.78;;;9.89;100.00
13968;BME280;39536;52.198;9.920;2023-03-14T07:06:29;98083.25;;;9.87;100.00
13968;BME280;39536;52.198;9.920;2023-03-14T07:08:56;98098.03;;;9.86;100.00
13968;BME280;39536;52.198;9.920;2023-03-14T07:11:23;98092.81;;;9.86;100.00
13968;BME280;39536;52.198;9.920;2023-03-14T07:13:50;98092.81;;;9.86;100.00
13968;BME280;39536;52.198;9.920;2023-03-14T07:16:16;98095.00;;;9.92;100.00
13968;BME280;39536;52.198;9.920;2023-03-14T07:18:44;98096.22;;;10.00;100.00
13968;BME280;39536;52.198;9.920;2023-03-14T07:21:11;98086.25;;;9.93;100.00
13968;BME280;39536;52.198;9.920;2023-03-14T07:23:38;98098.75;;;10.01;100.00
13968;BME280;39536;52.198;9.920;2023-03-14T07:26:05;98082.53;;;9.98;100.00
13968;BME280;39536;52.198;9.920;2023-03-14T07:28:32;98092.19;;;9.95;100.00
13968;BME280;39536;52.198;9.920;2023-03-14T07:30:59;98082.63;;;9.96;100.00
13968;BME280;39536;52.198;9.920;2023-03-14T07:33:25;98083.00;;;10.03;100.00
13968;BME280;39536;52.198;9.920;2023-03-14T07:35:53;98084.41;;;9.83;100.00
13968;BME280;39536;52.198;9.920;2023-03-14T07:38:20;98076.81;;;9.80;100.00
13968;BME280;39536;52.198;9.920;2023-03-14T07:40:46;98066.41;;;9.80;100.00
13968;BME280;39536;52.198;9.920;2023-03-14T07:43:13;98068.59;;;9.86;100.00
13968;BME280;39536;52.198;9.920;2023-03-14T07:45:40;98075.84;;;9.93;100.00
13968;BME280;39536;52.198;9.920;2023-03-14T07:48:07;98069.72;;;9.94;100.00
13968;BME280;39536;52.198;9.920;2023-03-14T07:50:33;98064.53;;;9.94;100.00
13968;BME280;39536;52.198;9.920;2023-03-14T07:53:02;98068.25;;;10.03;100.00
13968;BME280;39536;52.198;9.920;2023-03-14T07:55:29;98065.03;;;10.12;100.00
13968;BME280;39536;52.198;9.920;2023-03-14T07:57:56;98054.06;;;10.20;100.00
13968;BME280;39536;52.198;9.920;2023-03-14T08:00:23;98057.19;;;10.25;100.00
13968;BME280;39536;52.198;9.920;2023-03-14T08:02:49;98049.59;;;10.22;100.00
13968;BME280;39536;52.198;9.920;2023-03-14T08:05:16;98049.88;;;10.30;100.00
13968;BME280;39536;52.198;9.920;2023-03-14T08:07:43;98042.16;;;10.42;100.00
13968;BME280;39536;52.198;9.920;2023-03-14T08:10:11;98047.22;;;10.43;100.00
13968;BME280;39536;52.198;9.920;2023-03-14T08:12:41;98053.94;;;10.58;100.00
13968;BME280;39536;52.198;9.920;2023-03-14T08:15:08;98051.72;;;10.65;100.00
13968;BME280;39536;52.198;9.920;2023-03-14T08:17:35;98058.59;;;10.66;100.00
13968;BME280;39536;52.198;9.920;2023-03-14T08:20:01;98056.38;;;10.73;100.00
13968;BME280;39536;52.198;9.920;2023-03-14T08:22:31;98046.56;;;10.76;100.00
13968;BME280;39536;52.198;9.920;2023-03-14T08:24:58;98058.19;;;10.83;100.00
13968;BME280;39536;52.198;9.920;2023-03-14T08:27:26;98058.56;;;10.90;100.00
13968;BME280;39536;52.198;9.920;2023-03-14T08:29:52;98060.47;;;10.88;100.00
13968;BME280;39536;52.198;9.920;2023-03-14T08:32:19;98069.50;;;10.71;100.00
13968;BME280;39536;52.198;9.920;2023-03-14T08:34:47;98083.47;;;10.70;100.00
13968;BME280;39536;52.198;9.920;2023-03-14T08:37:14;98098.47;;;10.67;100.00
13968;BME280;39536;52.198;9.920;2023-03-14T08:39:40;98088.56;;;10.48;100.00
13968;BME280;39536;52.198;9.920;2023-03-14T08:42:07;98098.88;;;10.36;100.00
13968;BME280;39536;52.198;9.920;2023-03-14T08:44:35;98079.44;;;10.29;100.00
13968;BME280;39536;52.198;9.920;2023-03-14T08:47:01;98085.59;;;10.28;100.00
13968;BME280;39536;52.198;9.920;2023-03-14T08:49:28;98089.75;;;10.31;100.00
13968;BME280;39536;52.198;9.920;2023-03-14T08:51:54;98090.38;;;10.34;100.00
13968;BME280;39536;52.198;9.920;2023-03-14T08:54:21;98076.53;;;10.21;100.00
13968;BME280;39536;52.198;9.920;2023-03-14T08:56:47;98083.63;;;10.32;100.00
13968;BME280;39536;52.198;9.920;2023-03-14T08:59:14;98085.34;;;10.44;100.00
13968;BME280;39536;52.198;9.920;2023-03-14T09:01:42;98088.00;;;10.55;100.00
13968;BME280;39536;52.198;9.920;2023-03-14T09:04:09;98090.38;;;10.58;100.00
13968;BME280;39536;52.198;9.920;2023-03-14T09:06:35;98084.03;;;10.62;100.00
13968;BME280;39536;52.198;9.920;2023-03-14T09:09:02;98086.44;;;10.77;100.00
13968;BME280;39536;52.198;9.920;2023-03-14T09:11:29;98092.69;;;10.74;100.00
13968;BME280;39536;52.198;9.920;2023-03-14T09:13:56;98094.03;;;10.80;100.00
13968;BME280;39536;52.198;9.920;2023-03-14T09:16:22;98085.25;;;10.81;100.00
13968;BME280;39536;52.198;9.920;2023-03-14T09:18:50;98091.59;;;10.90;100.00
13968;BME280;39536;52.198;9.920;2023-03-14T09:21:19;98075.84;;;10.91;100.00
13968;BME280;39536;52.198;9.920;2023-03-14T09:23:46;98091.63;;;11.01;100.00
13968;BME280;39536;52.198;9.920;2023-03-14T09:26:15;98076.28;;;11.09;100.00
13968;BME280;39536;52.198;9.920;2023-03-14T09:28:55;98070.84;;;11.23;100.00
13968;BME280;39536;52.198;9.920;2023-03-14T09:31:21;98068.38;;;11.33;100.00
13968;BME280;39536;52.198;9.920;2023-03-14T09:33:49;98078.84;;;11.44;100.00
13968;BME280;39536;52.198;9.920;2023-03-14T09:36:16;98078.25;;;11.41;100.00
13968;BME280;39536;52.198;9.920;2023-03-14T09:38:42;98078.00;;;11.44;100.00
13968;BME280;39536;52.198;9.920;2023-03-14T09:41:14;98074.25;;;11.59;100.00
13968;BME280;39536;52.198;9.920;2023-03-14T09:43:42;98084.31;;;11.64;100.00
13968;BME280;39536;52.198;9.920;2023-03-14T09:46:10;98069.59;;;11.74;100.00
13968;BME280;39536;52.198;9.920;2023-03-14T09:48:37;98078.88;;;11.78;100.00
13968;BME280;39536;52.198;9.920;2023-03-14T09:51:11;98072.84;;;11.89;100.00
13968;BME280;39536;52.198;9.920;2023-03-14T09:53:40;98069.66;;;11.85;100.00
13968;BME280;39536;52.198;9.920;2023-03-14T09:56:12;98082.53;;;11.75;100.00
13968;BME280;39536;52.198;9.920;2023-03-14T09:58:41;98067.72;;;11.53;100.00
13968;BME280;39536;52.198;9.920;2023-03-14T10:01:13;98082.06;;;11.59;100.00
13968;BME280;39536;52.198;9.920;2023-03-14T10:03:42;98076.22;;;11.55;100.00
13968;BME280;39536;52.198;9.920;2023-03-14T10:06:13;98083.72;;;11.71;100.00
13968;BME280;39536;52.198;9.920;2023-03-14T10:08:41;98083.69;;;11.49;100.00
13968;BME280;39536;52.198;9.920;2023-03-14T10:11:13;98085.13;;;11.64;100.00
13968;BME280;39536;52.198;9.920;2023-03-14T10:13:47;98080.03;;;11.74;100.00
13968;BME280;39536;52.198;9.920;2023-03-14T10:16:14;98078.19;;;11.98;100.00
13968;BME280;39536;52.198;9.920;2023-03-14T10:18:44;98076.88;;;12.15;100.00
13968;BME280;39536;52.198;9.920;2023-03-14T10:21:21;98084.94;;;12.01;100.00
13968;BME280;39536;52.198;9.920;2023-03-14T10:23:52;98084.34;;;11.97;100.00
13968;BME280;39536;52.198;9.920;2023-03-14T10:26:23;98085.91;;;12.00;100.00
13968;BME280;39536;52.198;9.920;2023-03-14T10:28:52;98083.19;;;11.90;100.00
13968;BME280;39536;52.198;9.920;2023-03-14T10:31:25;98086.59;;;12.02;100.00
13968;BME280;39536;52.198;9.920;2023-03-14T10:33:59;98084.84;;;12.02;100.00
13968;BME280;39536;52.198;9.920;2023-03-14T10:36:29;98089.19;;;11.79;100.00
13968;BME280;39536;52.198;9.920;2023-03-14T10:38:57;98085.16;;;11.87;100.00
13968;BME280;39536;52.198;9.920;2023-03-14T10:41:26;98074.97;;;11.95;100.00
13968;BME280;39536;52.198;9.920;2023-03-14T10:43:56;98083.28;;;11.89;100.00
13968;BME280;39536;52.198;9.920;2023-03-14T10:46:24;98089.06;;;11.81;100.00
13968;BME280;39536;52.198;9.920;2023-03-14T10:48:53;98073.66;;;11.89;100.00
13968;BME280;39536;52.198;9.920;2023-03-14T10:51:25;98076.16;;;12.13;100.00
13968;BME280;39536;52.198;9.920;2023-03-14T10:53:58;98076.84;;;12.27;100.00
13968;BME280;39536;52.198;9.920;2023-03-14T10:56:26;98068.56;;;12.21;100.00
13968;BME280;39536;52.198;9.920;2023-03-14T10:58:56;98064.84;;;12.35;100.00
13968;BME280;39536;52.198;9.920;2023-03-14T11:01:35;98067.78;;;12.42;100.00
13968;BME280;39536;52.198;9.920;2023-03-14T11:04:14;98063.97;;;12.46;100.00
13968;BME280;39536;52.198;9.920;2023-03-14T11:06:44;98070.78;;;12.26;100.00
13968;BME280;39536;52.198;9.920;2023-03-14T11:09:21;98071.56;;;12.06;100.00
13968;BME280;39536;52.198;9.920;2023-03-14T11:11:49;98074.50;;;12.12;100.00
13968;BME280;39536;52.198;9.920;2023-03-14T11:14:23;98072.47;;;12.16;100.00
13968;BME280;39536;52.198;9.920;2023-03-14T11:16:55;98074.63;;;11.99;100.00
13968;BME280;39536;52.198;9.920;2023-03-14T11:19:41;98081.84;;;12.07;100.00
13968;BME280;39536;52.198;9.920;2023-03-14T11:22:16;98069.88;;;12.16;100.00
13968;BME280;39536;52.198;9.920;2023-03-14T11:24:59;98086.78;;;12.33;100.00
13968;BME280;39536;52.198;9.920;2023-03-14T11:27:38;98084.03;;;12.45;100.00
13968;BME280;39536;52.198;9.920;2023-03-14T11:30:16;98074.19;;;12.81;100.00
13968;BME280;39536;52.198;9.920;2023-03-14T11:32:45;98072.00;;;12.98;100.00
13968;BME280;39536;52.198;9.920;2023-03-14T11:35:18;98083.66;;;12.93;100.00
13968;BME280;39536;52.198;9.920;2023-03-14T11:37:48;98073.69;;;12.87;100.00
13968;BME280;39536;52.198;9.920;2023-03-14T11:40:21;98080.25;;;12.50;100.00
13968;BME280;39536;52.198;9.920;2023-03-14T11:42:56;98087.28;;;12.38;100.00
13968;BME280;39536;52.198;9.920;2023-03-14T11:45:29;98168.44;;;12.23;100.00
13968;BME280;39536;52.198;9.920;2023-03-14T11:48:08;98257.81;;;9.95;100.00
13968;BME280;39536;52.198;9.920;2023-03-14T11:50:38;98233.66;;;7.86;100.00
13968;BME280;39536;52.198;9.920;2023-03-14T11:53:10;98250.63;;;7.00;100.00
13968;BME280;39536;52.198;9.920;2023-03-14T11:55:42;98264.47;;;6.51;100.00
13968;BME280;39536;52.198;9.920;2023-03-14T11:58:14;98294.84;;;6.30;100.00
13968;BME280;39536;52.198;9.920;2023-03-14T12:00:43;98318.00;;;5.98;100.00
13968;BME280;39536;52.198;9.920;2023-03-14T12:03:16;98317.28;;;5.95;100.00
13968;BME280;39536;52.198;9.920;2023-03-14T12:05:54;98317.09;;;5.99;100.00
13968;BME280;39536;52.198;9.920;2023-03-14T12:08:43;98363.22;;;5.88;100.00
13968;BME280;39536;52.198;9.920;2023-03-14T12:11:17;98353.59;;;5.92;100.00
13968;BME280;39536;52.198;9.920;2023-03-14T12:13:47;98385.22;;;5.79;100.00
13968;BME280;39536;52.198;9.920;2023-03-14T12:16:27;98380.50;;;5.88;100.00
13968;BME280;39536;52.198;9.920;2023-03-14T12:18:56;98386.25;;;5.75;100.00
13968;BME280;39536;52.198;9.920;2023-03-14T12:21:24;98401.91;;;5.53;100.00
13968;BME280;39536;52.198;9.920;2023-03-14T12:24:18;98444.28;;;5.49;100.00
13968;BME280;39536;52.198;9.920;2023-03-14T12:26:52;98462.69;;;5.42;100.00
13968;BME280;39536;52.198;9.920;2023-03-14T12:29:19;98429.91;;;5.25;100.00
13968;BME280;39536;52.198;9.920;2023-03-14T12:31:46;98486.44;;;5.10;100.00
13968;BME280;39536;52.198;9.920;2023-03-14T12:34:31;98494.25;;;4.89;100.00
13968;BME280;39536;52.198;9.920;2023-03-14T12:37:23;98513.38;;;4.42;100.00
13968;BME280;39536;52.198;9.920;2023-03-14T12:40:15;98508.19;;;4.44;100.00
13968;BME280;39536;52.198;9.920;2023-03-14T12:42:54;98522.56;;;4.27;100.00
13968;BME280;39536;52.198;9.920;2023-03-14T12:45:25;98563.75;;;4.29;100.00
13968;BME280;39536;52.198;9.920;2023-03-14T12:47:54;98572.63;;;4.22;100.00
13968;BME280;39536;52.198;9.920;2023-03-14T12:50:26;98525.91;;;4.07;100.00
13968;BME280;39536;52.198;9.920;2023-03-14T12:56:03;98614.44;;;4.05;100.00
13968;BME280;39536;52.198;9.920;2023-03-14T12:58:35;98632.59;;;4.02;100.00
13968;BME280;39536;52.198;9.920;2023-03-14T13:01:05;98629.69;;;3.87;100.00
13968;BME280;39536;52.198;9.920;2023-03-14T13:03:39;98610.03;;;3.85;100.00